This is the latest recevied weather packets stored in our database for station/object AA7F. If no packets are shown the sender has not sent any weather packets the latest 1 day(s).
| Time | Temp. | Humidity | Pressure | Rain* | Wind** | Luminosity | Snow |
|---|---|---|---|---|---|---|---|
| 1778050433 | 11.67° C | 67% | 1011.9 hPa | 0 mm | - | 0 W/m² | - |
| 1778049824 | 12.22° C | 66% | 1012.1 hPa | 0 mm | - | 0 W/m² | - |
| 1778049522 | 12.22° C | 63% | 1011.9 hPa | 0 mm | - | 0 W/m² | - |
| 1778048918 | 13.33° C | 60% | 1011.7 hPa | 0 mm | - | 0 W/m² | - |
| 1778048615 | 13.89° C | 57% | 1011.8 hPa | 0 mm | - | 0 W/m² | - |
| 1778048311 | 13.89° C | 58% | 1011.7 hPa | 0 mm | - | 0 W/m² | - |
| 1778048008 | 13.89° C | 57% | 1011.6 hPa | 0 mm | - | 0 W/m² | - |
| 1778047706 | 13.89° C | 56% | 1011.4 hPa | 0 mm | - | 0 W/m² | - |
| 1778047404 | 13.89° C | 56% | 1011.4 hPa | 0 mm | - | 0 W/m² | - |
| 1778047100 | 14.44° C | 54% | 1011.3 hPa | 0 mm | - | 0 W/m² | - |
| 1778046191 | 13.89° C | 58% | 1011.2 hPa | 0 mm | - | 0 W/m² | - |
| 1778045284 | 15° C | 53% | 1011.2 hPa | 0 mm | - | 0 W/m² | - |
| 1778043467 | 16.11° C | 46% | 1010.9 hPa | 0 mm | - | 0 W/m² | - |
| 1778043164 | 16.67° C | 47% | 1010.8 hPa | 0 mm | - | 0 W/m² | - |
| 1778042861 | 16.11° C | 44% | 1010.9 hPa | 0 mm | - | 0 W/m² | - |
| 1778042558 | 16.67° C | 44% | 1010.6 hPa | 0 mm | - | 0 W/m² | - |
| 1778042256 | 16.67° C | 46% | 1011 hPa | 0 mm | - | 0 W/m² | - |
| 1778041953 | 16.67° C | 47% | 1010.7 hPa | 0 mm | - | 0 W/m² | - |
| 1778041652 | 16.67° C | 46% | 1010.7 hPa | 0 mm | - | 0 W/m² | - |
| 1778041350 | 16.11° C | 48% | 1010.7 hPa | 0 mm | - | 0 W/m² | - |
| 1778041048 | 15.56° C | 49% | 1010.4 hPa | 0 mm | - | 0 W/m² | - |
| 1778040745 | 16.11° C | 47% | 1010.6 hPa | 0 mm | - | 0 W/m² | - |
| 1778040442 | 17.22° C | 47% | 1010.3 hPa | 0 mm | - | 0 W/m² | - |
| 1778040139 | 17.78° C | 44% | 1010.1 hPa | 0 mm | - | 0 W/m² | - |
| 1778039533 | 18.33° C | 42% | 1010.3 hPa | 0 mm | - | 0 W/m² | - |
* Rain latest hour (hover to see other rain measurements)
** Current wind speed in m/s (hover to see current wind gust speed)